Terminal Aerodrome Forecast
Issued by NWS

Home | Current Version | Previous Version | Text Only | Print | Product List | Glossary On
Versions: 1 2 3 4 5 6 7 8 9 10 11 12 13 14 15
480
FTUS46 KSEW 230520
TAFBLI
TAF
KBLI 230520Z 2306/2406 18004KT P6SM BKN120
     FM230900 18004KT P6SM OVC080
     FM231300 18004KT P6SM SCT050 BKN080
     FM231900 18004KT P6SM SCT080 SCT120=

USA.gov is the U.S. government's official web portal to all federal, state and local government web resources and services.